createdAt,value
2023-02-16T00:02:12.190Z,56.63
2023-02-16T00:04:38.817Z,57.85
2023-02-16T00:07:05.396Z,61.47
2023-02-16T00:09:31.948Z,58.08
2023-02-16T00:12:16.978Z,54.97
2023-02-16T00:14:43.556Z,63.42
2023-02-16T00:17:11.433Z,61.42
2023-02-16T00:19:42.696Z,58.22
2023-02-16T00:22:11.513Z,55.95
2023-02-16T00:24:38.120Z,59.08
2023-02-16T00:27:13.091Z,61.70
2023-02-16T00:29:44.790Z,64.10
2023-02-16T00:32:13.721Z,60.15
2023-02-16T00:34:43.563Z,55.72
2023-02-16T00:37:12.867Z,55.50
2023-02-16T00:39:41.131Z,57.67
2023-02-16T00:42:20.483Z,53.10
2023-02-16T00:44:49.382Z,61.42
2023-02-16T00:47:21.987Z,58.05
2023-02-16T00:49:51.610Z,62.70
2023-02-16T00:52:42.707Z,60.65
2023-02-16T00:55:12.934Z,60.53
2023-02-16T00:57:44.255Z,57.25
2023-02-16T01:00:13.772Z,56.95
2023-02-16T01:02:44.345Z,56.67
2023-02-16T01:05:11.452Z,64.75
2023-02-16T01:07:56.793Z,63.30
2023-02-16T01:10:45.896Z,56.85
2023-02-16T01:13:12.911Z,58.42
2023-02-16T01:15:45.407Z,60.63
2023-02-16T01:18:16.980Z,56.13
2023-02-16T01:20:44.631Z,61.75
2023-02-16T01:23:11.620Z,54.90
2023-02-16T01:25:38.570Z,61.95
2023-02-16T01:28:18.699Z,56.33
2023-02-16T01:30:45.293Z,60.58
2023-02-16T01:33:11.902Z,59.88
2023-02-16T01:35:38.817Z,56.78
2023-02-16T01:38:05.440Z,55.80
2023-02-16T01:40:37.428Z,58.60
2023-02-16T01:43:18.957Z,54.63
2023-02-16T01:45:51.229Z,57.75
2023-02-16T01:48:30.225Z,58.92
2023-02-16T01:51:22.099Z,61.28
2023-02-16T01:54:07.508Z,61.92
2023-02-16T01:56:52.716Z,54.15
2023-02-16T01:59:41.594Z,59.25
2023-02-16T02:02:26.108Z,59.65
2023-02-16T02:05:22.192Z,60.53
2023-02-16T02:07:58.393Z,56.60
2023-02-16T02:10:54.364Z,61.88
2023-02-16T02:13:58.387Z,55.97
2023-02-16T02:16:27.802Z,58.80
2023-02-16T02:18:54.634Z,61.22
2023-02-16T02:22:04.907Z,55.70
2023-02-16T02:24:58.833Z,59.17
2023-02-16T02:27:37.746Z,58.73
2023-02-16T02:30:13.341Z,57.27
2023-02-16T02:32:50.066Z,58.80
2023-02-16T02:35:41.024Z,61.53
2023-02-16T02:38:25.570Z,61.07
2023-02-16T02:41:49.253Z,54.93
2023-02-16T02:44:20.208Z,60.13
2023-02-16T02:46:47.278Z,56.10
2023-02-16T02:49:13.948Z,59.10
2023-02-16T02:51:42.674Z,60.83
2023-02-16T02:54:32.870Z,72.87
2023-02-16T02:57:33.097Z,60.50
2023-02-16T03:00:29.662Z,59.20
2023-02-16T03:03:03.703Z,63.30
2023-02-16T03:05:36.270Z,64.88
2023-02-16T03:08:14.126Z,62.90
2023-02-16T03:11:06.900Z,59.63
2023-02-16T03:13:49.281Z,60.53
2023-02-16T03:16:28.019Z,64.17
2023-02-16T03:19:17.228Z,56.77
2023-02-16T03:22:03.023Z,59.13
2023-02-16T03:24:51.426Z,61.23
2023-02-16T03:27:42.665Z,59.23
2023-02-16T03:30:11.141Z,67.23
2023-02-16T03:32:38.890Z,60.53
2023-02-16T03:35:06.951Z,63.73
2023-02-16T03:37:33.823Z,61.53
2023-02-16T03:40:21.133Z,59.77
2023-02-16T03:42:51.990Z,62.83
2023-02-16T03:45:23.397Z,62.13
2023-02-16T03:47:52.735Z,58.88
2023-02-16T03:50:19.329Z,61.20
2023-02-16T03:52:46.026Z,60.90
2023-02-16T03:55:15.113Z,70.07
2023-02-16T03:57:41.639Z,67.88
2023-02-16T04:00:08.918Z,68.83
2023-02-16T04:02:40.219Z,60.83
2023-02-16T04:05:07.048Z,66.55
2023-02-16T04:07:33.630Z,68.55
2023-02-16T04:10:00.180Z,69.97
2023-02-16T04:12:38.832Z,63.30
2023-02-16T04:15:08.991Z,65.80
2023-02-16T04:17:35.751Z,62.30
2023-02-16T04:20:03.311Z,68.70
2023-02-16T04:22:32.168Z,61.38
2023-02-16T04:24:58.701Z,69.30
2023-02-16T04:27:25.423Z,63.15
2023-02-16T04:29:52.103Z,69.03
2023-02-16T04:32:20.968Z,64.72
2023-02-16T04:34:49.653Z,65.32
2023-02-16T04:37:16.380Z,70.18
2023-02-16T04:39:45.144Z,68.40
2023-02-16T04:42:11.747Z,66.43
2023-02-16T04:44:40.948Z,65.45
2023-02-16T04:47:07.453Z,64.00
2023-02-16T04:49:36.359Z,62.55
2023-02-16T04:52:04.095Z,67.75
2023-02-16T04:54:31.935Z,69.53
2023-02-16T04:56:58.808Z,62.53
2023-02-16T04:59:25.984Z,62.15
2023-02-16T05:01:55.050Z,61.40
2023-02-16T05:04:21.827Z,62.70
2023-02-16T05:06:51.103Z,68.35
2023-02-16T05:09:17.713Z,58.55
2023-02-16T05:12:03.067Z,65.30
2023-02-16T05:14:43.334Z,66.72
2023-02-16T05:17:11.076Z,61.90
2023-02-16T05:19:41.456Z,59.22
2023-02-16T05:22:08.458Z,67.03
2023-02-16T05:24:36.060Z,61.58
2023-02-16T05:27:04.597Z,66.28
2023-02-16T05:29:31.445Z,66.45
2023-02-16T05:31:58.474Z,66.50
2023-02-16T05:34:25.593Z,66.47
2023-02-16T05:36:52.734Z,62.55
2023-02-16T05:39:19.516Z,67.95
2023-02-16T05:41:46.165Z,62.47
2023-02-16T05:44:12.952Z,64.57
2023-02-16T05:46:43.150Z,68.43
2023-02-16T05:49:10.371Z,63.72
2023-02-16T05:51:37.685Z,59.47
2023-02-16T05:54:05.102Z,57.72
2023-02-16T05:56:34.274Z,61.17
2023-02-16T05:59:03.611Z,63.28
2023-02-16T06:01:30.181Z,66.10
2023-02-16T06:03:56.887Z,62.97
2023-02-16T06:06:23.520Z,62.53
2023-02-16T06:08:50.133Z,63.45
2023-02-16T06:11:39.537Z,59.53
2023-02-16T06:14:15.711Z,58.67
2023-02-16T06:16:47.324Z,59.33
2023-02-16T06:19:16.342Z,59.88
2023-02-16T06:21:43.202Z,62.47
2023-02-16T06:24:12.104Z,57.13
2023-02-16T06:26:38.990Z,61.63
2023-02-16T06:29:05.806Z,55.80
2023-02-16T06:31:35.825Z,58.97
2023-02-16T06:34:03.797Z,69.10
2023-02-16T06:36:30.780Z,70.20
2023-02-16T06:38:57.464Z,59.80
2023-02-16T06:41:35.525Z,58.30
2023-02-16T06:44:07.737Z,60.13
2023-02-16T06:46:34.882Z,61.75
2023-02-16T06:49:01.849Z,58.30
2023-02-16T06:51:29.127Z,58.15
2023-02-16T06:53:55.744Z,62.63
2023-02-16T06:56:24.679Z,56.65
2023-02-16T06:58:51.797Z,59.63
2023-02-16T07:01:23.044Z,59.95
2023-02-16T07:03:53.538Z,63.17
2023-02-16T07:06:20.825Z,59.13
2023-02-16T07:08:47.649Z,54.58
2023-02-16T07:11:14.883Z,57.55
2023-02-16T07:13:41.557Z,60.47
2023-02-16T07:16:08.190Z,56.70
2023-02-16T07:18:35.242Z,53.22
2023-02-16T07:21:02.195Z,60.38
2023-02-16T07:23:29.091Z,55.85
2023-02-16T07:25:55.684Z,55.50
2023-02-16T07:28:22.327Z,60.28
2023-02-16T07:30:48.934Z,57.40
2023-02-16T07:33:15.992Z,59.20
2023-02-16T07:35:43.616Z,58.53
2023-02-16T07:38:10.453Z,57.53
2023-02-16T07:40:37.048Z,60.83
2023-02-16T07:43:05.749Z,56.58
2023-02-16T07:45:33.056Z,59.10
2023-02-16T07:48:00.485Z,56.80
2023-02-16T07:50:27.577Z,52.38
2023-02-16T07:52:54.195Z,55.63
2023-02-16T07:55:20.785Z,50.25
2023-02-16T07:57:49.507Z,56.90
2023-02-16T08:00:18.916Z,50.15
2023-02-16T08:02:45.594Z,59.22
2023-02-16T08:05:12.157Z,60.50
2023-02-16T08:07:41.927Z,50.65
2023-02-16T08:10:13.022Z,55.47
2023-02-16T08:12:41.724Z,52.33
2023-02-16T08:15:09.615Z,51.22
2023-02-16T08:17:36.523Z,54.25
2023-02-16T08:20:04.940Z,51.60
2023-02-16T08:22:32.846Z,49.33
2023-02-16T08:25:01.915Z,55.25
2023-02-16T08:27:28.517Z,56.58
2023-02-16T08:29:55.461Z,54.13
2023-02-16T08:32:22.247Z,51.92
2023-02-16T08:34:49.064Z,58.78
2023-02-16T08:37:15.799Z,53.33
2023-02-16T08:39:42.850Z,57.67
2023-02-16T08:42:13.566Z,52.10
2023-02-16T08:44:42.446Z,50.92
2023-02-16T08:47:10.974Z,52.75
2023-02-16T08:49:39.414Z,47.85
2023-02-16T08:52:06.443Z,51.45
2023-02-16T08:54:33.508Z,53.10
2023-02-16T08:57:03.670Z,47.10
2023-02-16T08:59:31.361Z,47.28
2023-02-16T09:01:59.214Z,54.38
2023-02-16T09:04:28.989Z,48.88
2023-02-16T09:06:56.555Z,49.00
2023-02-16T09:09:23.521Z,51.85
2023-02-16T09:11:50.413Z,52.08
2023-02-16T09:14:21.661Z,50.10
2023-02-16T09:16:49.010Z,50.85
2023-02-16T09:19:18.406Z,51.70
2023-02-16T09:21:47.116Z,48.47
2023-02-16T09:24:13.964Z,50.70
2023-02-16T09:26:42.950Z,52.58
2023-02-16T09:29:12.475Z,56.25
2023-02-16T09:31:40.027Z,51.67
2023-02-16T09:34:27.937Z,54.28
2023-02-16T09:36:54.855Z,48.08
2023-02-16T09:39:21.787Z,49.80
2023-02-16T09:42:06.363Z,51.55
2023-02-16T09:44:45.182Z,54.67
2023-02-16T09:47:22.521Z,50.33
2023-02-16T09:49:50.269Z,49.63
2023-02-16T09:52:16.893Z,46.47
2023-02-16T09:54:51.341Z,49.15
2023-02-16T09:57:24.836Z,50.15
2023-02-16T10:00:13.157Z,45.95
2023-02-16T10:02:49.178Z,50.17
2023-02-16T10:05:52.030Z,49.22
2023-02-16T10:08:34.444Z,51.00
2023-02-16T10:11:38.256Z,53.42
2023-02-16T10:14:30.874Z,48.15
2023-02-16T10:17:18.323Z,53.85
2023-02-16T10:19:56.734Z,47.17
2023-02-16T10:22:44.745Z,49.97
2023-02-16T10:25:17.080Z,47.75
2023-02-16T10:27:47.954Z,54.08
2023-02-16T10:30:16.651Z,49.22
2023-02-16T10:32:56.462Z,47.70
2023-02-16T10:35:30.230Z,51.22
2023-02-16T10:38:21.265Z,50.25
2023-02-16T10:41:04.350Z,51.08
2023-02-16T10:43:39.581Z,53.25
2023-02-16T10:46:13.612Z,55.88
2023-02-16T10:48:40.217Z,48.80
2023-02-16T10:51:09.414Z,51.65
2023-02-16T10:53:59.427Z,55.35
2023-02-16T10:56:44.717Z,50.20
2023-02-16T10:59:18.816Z,56.10
2023-02-16T11:01:59.725Z,47.35
2023-02-16T11:04:33.290Z,47.63
2023-02-16T11:07:24.083Z,48.20
2023-02-16T11:09:53.933Z,46.80
2023-02-16T11:12:33.000Z,48.97
2023-02-16T11:15:18.869Z,49.95
2023-02-16T11:17:48.432Z,50.58
2023-02-16T11:20:45.079Z,52.15
2023-02-16T11:23:17.780Z,51.55
2023-02-16T11:25:57.401Z,51.22
2023-02-16T11:28:48.013Z,53.70
2023-02-16T11:31:32.958Z,50.25
2023-02-16T11:34:06.144Z,50.70
2023-02-16T11:36:37.682Z,52.58
2023-02-16T11:39:25.578Z,54.65
2023-02-16T11:42:01.268Z,52.42
2023-02-16T11:44:33.315Z,48.72
2023-02-16T11:47:12.613Z,48.42
2023-02-16T11:49:41.889Z,54.28
2023-02-16T11:52:23.932Z,49.33
2023-02-16T11:54:58.272Z,51.20
2023-02-16T11:57:28.522Z,52.97
2023-02-16T12:00:01.944Z,51.92
2023-02-16T12:02:50.385Z,47.22
2023-02-16T12:05:35.971Z,49.25
2023-02-16T12:08:25.643Z,45.88
2023-02-16T12:11:30.729Z,49.17
2023-02-16T12:14:29.308Z,49.83
2023-02-16T12:17:13.156Z,50.22
2023-02-16T12:19:41.836Z,52.80
2023-02-16T12:22:16.667Z,51.78
2023-02-16T12:24:56.197Z,48.67
2023-02-16T12:27:39.306Z,41.83
2023-02-16T12:30:12.091Z,43.72
2023-02-16T12:33:26.327Z,48.75
2023-02-16T12:36:21.834Z,50.70
2023-02-16T12:38:59.884Z,48.65
2023-02-16T12:42:12.077Z,46.58
2023-02-16T12:44:55.407Z,43.28
2023-02-16T12:47:54.663Z,46.75
2023-02-16T12:50:31.149Z,43.47
2023-02-16T12:53:27.661Z,45.45
2023-02-16T12:56:02.379Z,44.15
2023-02-16T12:58:36.541Z,41.55
2023-02-16T13:01:12.261Z,42.95
2023-02-16T13:03:40.541Z,43.53
2023-02-16T13:06:22.430Z,40.28
2023-02-16T13:09:20.068Z,41.92
2023-02-16T13:12:02.536Z,37.35
2023-02-16T13:14:40.159Z,41.08
2023-02-16T13:17:21.405Z,37.85
2023-02-16T13:19:52.037Z,37.47
2023-02-16T13:22:51.686Z,36.28
2023-02-16T13:25:43.104Z,34.35
2023-02-16T13:28:09.793Z,37.22
2023-02-16T13:30:59.805Z,35.33
2023-02-16T13:33:58.704Z,35.90
2023-02-16T13:36:41.187Z,38.35
2023-02-16T13:39:18.956Z,32.05
2023-02-16T13:41:57.823Z,28.52
2023-02-16T13:44:34.326Z,33.30
2023-02-16T13:47:05.073Z,30.63
2023-02-16T13:49:36.273Z,31.65
2023-02-16T13:52:08.470Z,33.70
2023-02-16T13:54:39.987Z,31.80
2023-02-16T13:57:11.908Z,28.90
2023-02-16T13:59:40.982Z,25.42
2023-02-16T14:02:15.086Z,27.00
2023-02-16T14:04:50.620Z,31.58
2023-02-16T14:07:31.286Z,29.95
2023-02-16T14:10:00.472Z,31.70
2023-02-16T14:12:36.170Z,27.10
2023-02-16T14:15:08.530Z,28.08
2023-02-16T14:17:35.880Z,28.98
2023-02-16T14:20:15.802Z,23.63
2023-02-16T14:22:57.581Z,25.70
2023-02-16T14:25:24.175Z,24.58
2023-02-16T14:27:56.448Z,25.33
2023-02-16T14:30:32.430Z,23.40
2023-02-16T14:33:17.174Z,25.40
2023-02-16T14:35:58.378Z,23.55
2023-02-16T14:38:51.234Z,25.70
2023-02-16T14:41:23.901Z,27.92
2023-02-16T14:43:56.256Z,26.38
2023-02-16T14:46:44.312Z,28.95
2023-02-16T14:49:45.329Z,24.42
2023-02-16T14:52:37.200Z,26.88
2023-02-16T14:55:46.715Z,26.50
2023-02-16T14:58:34.715Z,25.92
2023-02-16T15:01:12.651Z,28.00
2023-02-16T15:03:45.514Z,29.38
2023-02-16T15:06:27.920Z,29.98
2023-02-16T15:08:59.289Z,27.38
2023-02-16T15:11:57.615Z,25.40
2023-02-16T15:14:29.567Z,26.38
2023-02-16T15:16:58.977Z,30.13
2023-02-16T15:19:31.145Z,28.23
2023-02-16T15:22:22.203Z,28.23
2023-02-16T15:24:56.210Z,28.35
2023-02-16T15:27:23.735Z,25.77
2023-02-16T15:30:23.296Z,27.55
2023-02-16T15:32:56.399Z,28.90
2023-02-16T15:35:27.565Z,26.23
2023-02-16T15:38:05.108Z,29.17
2023-02-16T15:40:35.308Z,28.88
2023-02-16T15:43:30.874Z,26.00
2023-02-16T15:45:58.928Z,24.35
2023-02-16T15:48:29.310Z,23.70
2023-02-16T15:51:15.594Z,27.50
2023-02-16T15:53:55.963Z,25.02
2023-02-16T15:56:32.730Z,28.25
2023-02-16T15:59:20.909Z,22.80
2023-02-16T16:01:47.942Z,36.42
2023-02-16T16:04:25.259Z,25.50
2023-02-16T16:06:54.679Z,23.60
2023-02-16T16:09:30.890Z,30.55
2023-02-16T16:12:00.237Z,28.25
2023-02-16T16:14:28.414Z,26.83
2023-02-16T16:16:58.065Z,24.45
2023-02-16T16:19:38.334Z,29.23
2023-02-16T16:22:30.283Z,28.95
2023-02-16T16:24:56.921Z,29.92
2023-02-16T16:27:38.350Z,24.80
2023-02-16T16:30:45.408Z,29.73
2023-02-16T16:33:14.048Z,29.42
2023-02-16T16:35:52.076Z,30.15
2023-02-16T16:38:26.589Z,32.08
2023-02-16T16:40:59.840Z,25.27
2023-02-16T16:43:37.668Z,28.73
2023-02-16T16:46:07.627Z,28.50
2023-02-16T16:48:37.246Z,27.98
2023-02-16T16:51:21.153Z,32.95
2023-02-16T16:53:50.854Z,29.25
2023-02-16T16:56:18.773Z,31.35
2023-02-16T16:58:52.422Z,29.13
2023-02-16T17:01:20.491Z,29.67
2023-02-16T17:03:47.243Z,32.10
2023-02-16T17:06:17.712Z,29.08
2023-02-16T17:08:45.325Z,29.33
2023-02-16T17:11:24.221Z,32.58
2023-02-16T17:13:52.071Z,29.65
2023-02-16T17:16:28.126Z,31.27
2023-02-16T17:18:55.002Z,32.92
2023-02-16T17:21:21.742Z,35.83
2023-02-16T17:23:53.200Z,32.78
2023-02-16T17:26:20.662Z,32.65
2023-02-16T17:28:47.349Z,30.52
2023-02-16T17:31:13.995Z,30.02
2023-02-16T17:33:44.890Z,33.10
2023-02-16T17:36:14.502Z,33.03
2023-02-16T17:38:43.279Z,32.55
2023-02-16T17:41:28.360Z,38.50
2023-02-16T17:43:57.925Z,30.95
2023-02-16T17:46:25.562Z,30.50
2023-02-16T17:48:55.168Z,31.67
2023-02-16T17:51:24.177Z,41.55
2023-02-16T17:53:51.244Z,37.50
2023-02-16T17:56:20.580Z,37.10
2023-02-16T17:58:47.301Z,40.70
2023-02-16T18:01:15.732Z,35.03
2023-02-16T18:03:44.865Z,36.00
2023-02-16T18:06:17.361Z,34.28
2023-02-16T18:08:44.524Z,31.33
2023-02-16T18:11:13.115Z,30.67
2023-02-16T18:13:39.976Z,32.65
2023-02-16T18:16:07.917Z,33.38
2023-02-16T18:18:36.878Z,27.55
2023-02-16T18:21:03.697Z,37.65
2023-02-16T18:23:30.656Z,30.77
2023-02-16T18:26:00.108Z,36.47
2023-02-16T18:28:30.778Z,32.50
2023-02-16T18:31:00.258Z,36.05
2023-02-16T18:33:27.691Z,35.78
2023-02-16T18:36:00.234Z,29.85
2023-02-16T18:38:27.181Z,28.98
2023-02-16T18:40:55.320Z,29.75
2023-02-16T18:43:22.938Z,30.38
2023-02-16T18:45:53.211Z,33.58
2023-02-16T18:48:22.889Z,32.78
2023-02-16T18:50:51.853Z,32.42
2023-02-16T18:53:18.432Z,32.65
2023-02-16T18:55:45.054Z,29.67
2023-02-16T18:58:15.615Z,30.60
2023-02-16T19:00:42.187Z,34.25
2023-02-16T19:03:09.241Z,31.25
2023-02-16T19:05:38.370Z,29.88
2023-02-16T19:08:06.159Z,32.97
2023-02-16T19:10:35.100Z,34.83
2023-02-16T19:13:05.189Z,30.80
2023-02-16T19:15:33.265Z,31.85
2023-02-16T19:18:02.374Z,31.80
2023-02-16T19:20:31.748Z,32.85
2023-02-16T19:22:58.312Z,32.50
2023-02-16T19:25:25.181Z,31.13
2023-02-16T19:27:51.824Z,34.30
2023-02-16T19:30:22.042Z,31.33
2023-02-16T19:32:50.855Z,36.35
2023-02-16T19:35:19.715Z,35.03
2023-02-16T19:37:46.854Z,37.45
2023-02-16T19:40:13.890Z,32.63
2023-02-16T19:42:40.572Z,33.33
2023-02-16T19:45:07.570Z,33.60
2023-02-16T19:47:34.329Z,33.80
2023-02-16T19:50:03.968Z,33.95
2023-02-16T19:52:30.639Z,33.00
2023-02-16T19:54:57.200Z,34.63
2023-02-16T19:57:23.800Z,32.53
2023-02-16T19:59:52.585Z,32.85
2023-02-16T20:02:19.291Z,35.25
2023-02-16T20:04:45.934Z,31.52
2023-02-16T20:07:12.630Z,32.58
2023-02-16T20:09:41.738Z,36.20
2023-02-16T20:12:08.769Z,34.30
2023-02-16T20:14:35.592Z,32.85
2023-02-16T20:17:04.709Z,32.10
2023-02-16T20:19:31.275Z,35.15
2023-02-16T20:22:00.255Z,34.35
2023-02-16T20:24:29.426Z,28.25
2023-02-16T20:26:56.014Z,30.58
2023-02-16T20:29:22.765Z,31.27
2023-02-16T20:31:55.988Z,30.77
2023-02-16T20:34:28.794Z,30.08
2023-02-16T20:36:58.554Z,27.73
2023-02-16T20:39:25.400Z,32.10
2023-02-16T20:41:54.250Z,30.45
2023-02-16T20:44:22.559Z,33.03
2023-02-16T20:46:49.521Z,31.83
2023-02-16T20:49:18.439Z,30.15
2023-02-16T20:51:45.057Z,33.88
2023-02-16T20:54:12.560Z,29.65
2023-02-16T20:56:39.331Z,30.48
2023-02-16T20:59:05.977Z,29.08
2023-02-16T21:01:39.635Z,30.42
2023-02-16T21:04:08.210Z,29.73
2023-02-16T21:06:36.018Z,30.67
2023-02-16T21:09:04.115Z,31.85
2023-02-16T21:11:30.880Z,32.28
2023-02-16T21:13:58.348Z,32.17
2023-02-16T21:16:25.467Z,34.03
2023-02-16T21:18:52.171Z,30.55
2023-02-16T21:21:18.762Z,28.88
2023-02-16T21:23:52.925Z,32.17
2023-02-16T21:26:21.682Z,31.73
2023-02-16T21:28:48.722Z,30.58
2023-02-16T21:31:20.022Z,34.40
2023-02-16T21:33:47.467Z,37.10
2023-02-16T21:36:21.448Z,31.17
2023-02-16T21:38:48.919Z,32.72
2023-02-16T21:41:25.492Z,33.55
2023-02-16T21:44:03.273Z,32.45
2023-02-16T21:46:33.256Z,31.02
2023-02-16T21:49:00.264Z,28.50
2023-02-16T21:51:29.814Z,31.15
2023-02-16T21:53:57.843Z,30.45
2023-02-16T21:56:33.662Z,31.58
2023-02-16T21:59:00.870Z,32.10
2023-02-16T22:01:31.851Z,33.38
2023-02-16T22:04:00.459Z,30.75
2023-02-16T22:06:33.034Z,30.48
2023-02-16T22:09:00.629Z,33.53
2023-02-16T22:11:27.469Z,32.72
2023-02-16T22:13:58.299Z,33.67
2023-02-16T22:16:26.427Z,31.48
2023-02-16T22:18:57.718Z,30.25
2023-02-16T22:21:24.810Z,30.95
2023-02-16T22:23:51.368Z,33.13
2023-02-16T22:26:36.188Z,29.83
2023-02-16T22:29:06.796Z,30.42
2023-02-16T22:31:34.049Z,31.85
2023-02-16T22:34:03.074Z,27.50
2023-02-16T22:36:32.018Z,25.65
2023-02-16T22:38:58.601Z,27.55
2023-02-16T22:41:28.276Z,25.23
2023-02-16T22:43:56.057Z,21.23
2023-02-16T22:46:24.187Z,21.90
2023-02-16T22:48:52.140Z,20.40
2023-02-16T22:51:20.996Z,18.83
2023-02-16T22:53:49.881Z,19.48
2023-02-16T22:56:18.238Z,20.77
2023-02-16T22:58:45.922Z,18.38
2023-02-16T23:01:15.493Z,16.73
2023-02-16T23:03:44.595Z,17.33
2023-02-16T23:06:17.044Z,14.35
2023-02-16T23:08:50.852Z,15.18
2023-02-16T23:11:17.459Z,14.25
2023-02-16T23:13:44.191Z,16.90
2023-02-16T23:16:17.378Z,14.23
2023-02-16T23:18:44.392Z,13.70
2023-02-16T23:21:21.257Z,14.40
2023-02-16T23:23:49.214Z,11.77
2023-02-16T23:26:16.708Z,15.40
2023-02-16T23:28:49.257Z,14.07
2023-02-16T23:31:16.077Z,13.63
2023-02-16T23:33:47.374Z,13.90
2023-02-16T23:36:14.267Z,16.25
2023-02-16T23:38:40.944Z,15.07
2023-02-16T23:41:10.946Z,15.38
2023-02-16T23:43:43.143Z,18.65
2023-02-16T23:46:10.990Z,15.18
2023-02-16T23:48:38.522Z,15.40
2023-02-16T23:51:05.436Z,16.35
2023-02-16T23:53:32.399Z,14.82
2023-02-16T23:56:00.936Z,15.93
2023-02-16T23:58:33.319Z,13.13
